Time;durP1;ratioP1;P1;durP2;ratioP2;P2;SDS_P1;SDS_P2;PMS_P1;PMS_P2;Temp;Humidity;BMP_temperature;BMP_pressure;BME280_temperature;BME280_humidity;BME280_pressure;Samples;Min_cycle;Max_cycle;Signal;HPM_P1;HPM_P2
2021/01/13 00:00:09;;;;;;;7.87;6.80;;;3.70;99.90;;;;;;5073784;28;20311;-62
2021/01/13 00:02:36;;;;;;;12.17;6.90;;;3.80;99.90;;;;;;5074247;28;20266;-61
2021/01/13 00:05:02;;;;;;;8.43;6.50;;;4.00;99.90;;;;;;5073863;28;20613;-62
2021/01/13 00:07:29;;;;;;;9.67;6.70;;;4.10;99.90;;;;;;5074307;28;20258;-62
2021/01/13 00:09:55;;;;;;;9.20;6.50;;;4.20;99.90;;;;;;5073706;28;20229;-62
2021/01/13 00:12:21;;;;;;;8.70;6.20;;;4.30;99.90;;;;;;5072970;28;20209;-62
2021/01/13 00:14:47;;;;;;;8.83;6.30;;;4.40;99.90;;;;;;5072804;28;20208;-62
2021/01/13 00:17:13;;;;;;;7.93;5.90;;;4.50;99.90;;;;;;5073242;28;20229;-62
2021/01/13 00:19:40;;;;;;;10.43;6.30;;;4.50;99.90;;;;;;5072326;28;20236;-62
2021/01/13 00:22:08;;;;;;;11.17;6.17;;;4.60;99.90;;;;;;5072536;28;20270;-63
2021/01/13 00:24:34;;;;;;;7.90;5.83;;;4.60;99.90;;;;;;5072409;28;20216;-61
2021/01/13 00:27:01;;;;;;;9.67;5.73;;;4.60;99.90;;;;;;5072613;28;20209;-61
2021/01/13 00:29:28;;;;;;;7.10;5.90;;;4.70;99.90;;;;;;5072170;28;20225;-62
2021/01/13 00:31:58;;;;;;;10.73;6.10;;;4.80;99.90;;;;;;5073338;28;20216;-61
2021/01/13 00:34:25;;;;;;;9.37;5.90;;;4.80;99.90;;;;;;5079377;28;20209;-62
2021/01/13 00:36:52;;;;;;;10.50;5.73;;;4.80;99.90;;;;;;5079998;28;20251;-62
2021/01/13 00:39:18;;;;;;;6.00;5.37;;;4.90;99.90;;;;;;5078622;28;20671;-61
2021/01/13 00:41:45;;;;;;;8.60;5.03;;;5.00;99.90;;;;;;5073772;28;20201;-61
2021/01/13 00:44:11;;;;;;;8.03;5.63;;;4.90;99.90;;;;;;5072338;28;20444;-61
2021/01/13 00:46:39;;;;;;;8.47;5.97;;;4.90;99.90;;;;;;5072546;28;20208;-63
2021/01/13 00:49:06;;;;;;;10.10;6.80;;;5.00;99.90;;;;;;5072269;28;20209;-62
2021/01/13 00:51:33;;;;;;;7.37;5.23;;;5.00;99.90;;;;;;5072519;28;20591;-61
2021/01/13 00:54:00;;;;;;;10.07;5.33;;;5.00;99.90;;;;;;5070988;28;20216;-63
2021/01/13 00:56:27;;;;;;;6.97;5.33;;;5.00;99.90;;;;;;5072036;28;20221;-62
2021/01/13 00:58:53;;;;;;;6.67;5.00;;;4.90;99.90;;;;;;5071928;28;20205;-62
2021/01/13 01:01:20;;;;;;;9.13;5.13;;;4.80;99.90;;;;;;5071823;28;20229;-63
2021/01/13 01:03:46;;;;;;;11.23;5.37;;;4.70;99.90;;;;;;5071516;28;20205;-62
2021/01/13 01:06:12;;;;;;;9.63;5.37;;;4.60;99.90;;;;;;5071671;28;20208;-62
2021/01/13 01:08:39;;;;;;;10.43;5.73;;;4.60;99.90;;;;;;5071277;28;20205;-62
2021/01/13 01:11:06;;;;;;;8.33;5.43;;;4.50;99.90;;;;;;5071424;28;20221;-62
2021/01/13 01:13:32;;;;;;;9.63;5.60;;;4.50;99.90;;;;;;5071422;28;20209;-63
2021/01/13 01:15:59;;;;;;;7.37;5.80;;;4.60;99.90;;;;;;5071689;28;20205;-62
2021/01/13 01:18:25;;;;;;;7.10;5.53;;;4.60;99.90;;;;;;5071189;28;20221;-62
2021/01/13 01:20:51;;;;;;;6.50;5.30;;;4.60;99.90;;;;;;5071239;28;20266;-62
2021/01/13 01:23:17;;;;;;;8.37;5.73;;;4.60;99.90;;;;;;5071362;28;20209;-64
2021/01/13 01:25:43;;;;;;;7.67;6.27;;;4.60;99.90;;;;;;5071531;28;20220;-64
2021/01/13 01:28:10;;;;;;;7.10;5.67;;;4.60;99.90;;;;;;5071126;28;20197;-63
2021/01/13 01:30:37;;;;;;;7.80;5.37;;;4.70;99.90;;;;;;5071259;28;20232;-63
2021/01/13 01:33:03;;;;;;;8.70;6.40;;;4.70;99.90;;;;;;5071378;28;20209;-64
2021/01/13 01:35:29;;;;;;;8.83;5.93;;;4.70;99.90;;;;;;5071206;28;20548;-63
2021/01/13 01:37:55;;;;;;;7.60;6.03;;;4.70;99.90;;;;;;5071067;28;20229;-63
2021/01/13 01:40:22;;;;;;;6.80;5.67;;;4.60;99.90;;;;;;5071254;28;20233;-63
2021/01/13 01:42:50;;;;;;;9.27;5.87;;;4.60;99.90;;;;;;5071528;28;20209;-63
2021/01/13 01:45:19;;;;;;;9.93;6.00;;;4.60;99.90;;;;;;5070861;28;20281;-64
2021/01/13 01:48:21;;;;;;;8.27;5.70;;;4.50;99.90;;;;;;5070977;28;20205;-63
2021/01/13 01:50:48;;;;;;;6.23;5.60;;;4.50;99.90;;;;;;5070919;28;20232;-63
2021/01/13 01:53:32;;;;;;;9.80;5.33;;;4.50;99.90;;;;;;5070975;28;20591;-64
2021/01/13 01:56:06;;;;;;;9.03;6.03;;;4.60;99.90;;;;;;5070885;28;20235;-63
2021/01/13 01:58:33;;;;;;;8.80;5.57;;;4.60;99.90;;;;;;5070399;28;20221;-63
2021/01/13 02:01:01;;;;;;;7.87;5.43;;;4.70;99.90;;;;;;5070583;28;20225;-64
2021/01/13 02:03:30;;;;;;;7.43;5.10;;;4.80;99.90;;;;;;5070569;28;20205;-63
2021/01/13 02:06:04;;;;;;;7.43;5.20;;;4.80;99.90;;;;;;5070543;28;20200;-64
2021/01/13 02:08:37;;;;;;;8.63;5.80;;;4.80;99.90;;;;;;5070513;28;20224;-64
2021/01/13 02:11:04;;;;;;;7.37;5.90;;;4.70;99.90;;;;;;5070426;28;20775;-63
2021/01/13 02:13:30;;;;;;;7.03;5.40;;;4.70;99.90;;;;;;5070208;28;20205;-63
2021/01/13 02:15:57;;;;;;;7.47;5.27;;;4.80;99.90;;;;;;5070642;28;20616;-63
2021/01/13 02:18:28;;;;;;;6.67;5.57;;;4.80;99.90;;;;;;5070370;28;20495;-63
2021/01/13 02:21:01;;;;;;;9.57;5.40;;;4.80;99.90;;;;;;5070370;28;20236;-63
2021/01/13 02:23:31;;;;;;;8.73;5.00;;;4.80;99.90;;;;;;5070169;28;20205;-64
2021/01/13 02:26:34;;;;;;;7.07;5.43;;;4.70;99.90;;;;;;5070483;28;20208;-64
2021/01/13 02:29:28;;;;;;;7.33;5.63;;;4.60;99.90;;;;;;5067469;28;20262;-64
2021/01/13 02:32:00;;;;;;;6.87;5.40;;;4.50;99.90;;;;;;5070481;28;20209;-63
2021/01/13 02:34:44;;;;;;;8.53;5.43;;;4.60;99.90;;;;;;5070033;28;20205;-64
2021/01/13 02:37:47;;;;;;;7.83;5.77;;;4.70;99.90;;;;;;5070320;28;20229;-64
2021/01/13 02:40:18;;;;;;;6.40;5.13;;;4.80;99.90;;;;;;5070478;28;20228;-64
2021/01/13 02:42:58;;;;;;;6.77;5.13;;;4.90;99.90;;;;;;5070183;28;20621;-63
2021/01/13 02:45:26;;;;;;;9.17;5.27;;;4.90;99.90;;;;;;5070232;28;20292;-63
2021/01/13 02:48:13;;;;;;;8.30;5.43;;;5.00;99.90;;;;;;5070179;28;20201;-63
2021/01/13 02:50:42;;;;;;;7.80;5.17;;;5.00;99.90;;;;;;5070302;28;20225;-64
2021/01/13 02:53:45;;;;;;;7.97;5.73;;;5.00;99.90;;;;;;5070227;28;20379;-63
2021/01/13 02:56:45;;;;;;;8.47;5.13;;;5.00;99.90;;;;;;5070251;28;20758;-64
2021/01/13 02:59:12;;;;;;;7.13;4.77;;;5.00;99.90;;;;;;5069915;28;20209;-64
2021/01/13 03:01:42;;;;;;;8.43;5.10;;;5.00;99.90;;;;;;5070411;28;20296;-64
2021/01/13 03:04:10;;;;;;;8.43;5.00;;;5.00;99.90;;;;;;5069859;28;20695;-64
2021/01/13 03:06:39;;;;;;;9.23;4.97;;;5.00;99.90;;;;;;5070196;28;20205;-64
2021/01/13 03:09:07;;;;;;;8.27;5.20;;;4.90;99.90;;;;;;5069948;28;20220;-63
2021/01/13 03:11:34;;;;;;;5.63;4.60;;;4.90;99.90;;;;;;5070307;28;20680;-64
2021/01/13 03:14:16;;;;;;;5.90;5.27;;;4.80;99.90;;;;;;5069960;28;20212;-64
2021/01/13 03:17:11;;;;;;;6.17;4.83;;;4.80;99.90;;;;;;5071411;28;20220;-64
2021/01/13 03:19:53;;;;;;;7.13;4.73;;;4.80;99.90;;;;;;5089161;22;20236;-57
2021/01/13 03:22:28;;;;;;;6.90;4.80;;;4.80;99.90;;;;;;5053462;28;20206;-57
2021/01/13 03:25:04;;;;;;;7.23;4.90;;;4.80;99.90;;;;;;5053657;28;20603;-57
2021/01/13 03:27:33;;;;;;;6.00;4.57;;;4.80;99.90;;;;;;5053616;28;20226;-57
2021/01/13 03:30:01;;;;;;;6.80;4.77;;;4.90;99.90;;;;;;5053373;28;20318;-57
2021/01/13 03:32:37;;;;;;;6.57;4.30;;;4.90;99.90;;;;;;5054071;28;20544;-58
2021/01/13 03:35:07;;;;;;;7.67;5.00;;;4.90;99.90;;;;;;5053390;28;20201;-60
2021/01/13 03:37:56;;;;;;;6.83;4.73;;;4.90;99.90;;;;;;5053199;28;20233;-57
2021/01/13 03:40:25;;;;;;;8.23;4.97;;;4.90;99.90;;;;;;5049207;28;20229;-58
2021/01/13 03:42:53;;;;;;;7.57;4.30;;;4.80;99.90;;;;;;5053622;28;20209;-59
2021/01/13 03:45:33;;;;;;;8.00;4.70;;;4.80;99.90;;;;;;5053136;28;20241;-58
2021/01/13 03:48:17;;;;;;;13.80;6.67;;;4.80;99.90;;;;;;5053139;28;20202;-57
2021/01/13 03:50:45;;;;;;;6.90;4.60;;;4.70;99.90;;;;;;5053952;28;20261;-59
2021/01/13 03:53:12;;;;;;;7.67;4.60;;;4.70;99.90;;;;;;5053754;28;20208;-58
2021/01/13 03:55:40;;;;;;;6.57;4.07;;;4.70;99.90;;;;;;5053006;28;20210;-58
2021/01/13 03:58:15;;;;;;;8.80;4.47;;;4.80;99.90;;;;;;5053311;28;20663;-58
2021/01/13 04:00:55;;;;;;;5.57;4.17;;;4.70;99.90;;;;;;5053827;28;20820;-58
2021/01/13 04:03:26;;;;;;;9.83;4.97;;;4.70;99.90;;;;;;5053835;28;20209;-58
2021/01/13 04:06:06;;;;;;;8.77;4.67;;;4.80;99.90;;;;;;5052982;28;20700;-58
2021/01/13 04:08:39;;;;;;;5.10;4.53;;;4.80;99.90;;;;;;5052992;28;20205;-58
2021/01/13 04:11:07;;;;;;;8.87;5.13;;;4.80;99.90;;;;;;5053436;28;20226;-58
2021/01/13 04:13:39;;;;;;;8.23;4.83;;;4.80;99.90;;;;;;5053133;28;20205;-58
2021/01/13 04:16:07;;;;;;;11.60;7.57;;;4.80;99.90;;;;;;5053280;28;20651;-58
2021/01/13 04:18:34;;;;;;;6.20;5.07;;;4.80;99.90;;;;;;5053081;28;20229;-58
2021/01/13 04:21:01;;;;;;;6.43;4.90;;;4.80;99.90;;;;;;5053021;28;20659;-58
2021/01/13 04:23:29;;;;;;;12.50;6.10;;;4.80;99.90;;;;;;5053520;28;20216;-58
2021/01/13 04:25:55;;;;;;;5.73;4.47;;;4.80;99.90;;;;;;5053489;28;20210;-58
2021/01/13 04:28:22;;;;;;;9.90;5.67;;;4.90;99.90;;;;;;5053599;28;20551;-58
2021/01/13 04:30:49;;;;;;;10.03;6.60;;;4.90;99.90;;;;;;5053363;28;20310;-58
2021/01/13 04:33:16;;;;;;;7.20;4.97;;;4.90;99.90;;;;;;5053091;28;20210;-58
2021/01/13 04:35:43;;;;;;;6.27;4.87;;;4.90;99.90;;;;;;5053061;28;20275;-58
2021/01/13 04:38:12;;;;;;;6.00;4.93;;;4.90;99.90;;;;;;5052980;28;20229;-59
2021/01/13 04:40:40;;;;;;;11.63;6.20;;;4.80;99.90;;;;;;5052975;28;20240;-58
2021/01/13 04:43:08;;;;;;;9.00;5.50;;;4.80;99.90;;;;;;5053298;28;20630;-58
2021/01/13 04:45:40;;;;;;;14.73;5.93;;;4.70;99.90;;;;;;5052983;28;20600;-58
2021/01/13 04:48:07;;;;;;;7.40;4.67;;;4.60;99.90;;;;;;5053069;28;20665;-58
2021/01/13 04:50:35;;;;;;;9.03;4.90;;;4.50;99.90;;;;;;5053026;28;20229;-58
2021/01/13 04:53:08;;;;;;;10.30;5.30;;;4.40;99.90;;;;;;5052908;28;20720;-58
2021/01/13 04:55:44;;;;;;;8.47;4.93;;;4.30;99.90;;;;;;5052960;28;20209;-58
2021/01/13 04:58:52;;;;;;;8.03;5.60;;;4.10;99.90;;;;;;5052268;28;20225;-58
2021/01/13 05:02:04;;;;;;;9.13;5.67;;;4.10;99.90;;;;;;5035570;28;20607;-58
2021/01/13 05:04:59;;;;;;;10.37;6.40;;;4.00;99.90;;;;;;5052270;28;20232;-58
2021/01/13 05:07:38;;;;;;;12.00;7.07;;;3.90;99.90;;;;;;5052167;28;20217;-58
2021/01/13 05:10:09;;;;;;;9.73;5.93;;;3.80;99.90;;;;;;5052114;28;20245;-58
2021/01/13 05:12:53;;;;;;;9.60;6.20;;;3.60;99.90;;;;;;5052164;28;20206;-58
2021/01/13 05:15:24;;;;;;;10.00;5.00;;;3.50;99.90;;;;;;5052234;28;20217;-58
2021/01/13 05:18:05;;;;;;;7.13;5.67;;;3.50;99.90;;;;;;5052031;28;20240;-58
2021/01/13 05:20:34;;;;;;;9.77;5.90;;;3.40;99.90;;;;;;5052246;28;20233;-58
2021/01/13 05:23:02;;;;;;;13.63;8.37;;;3.40;99.90;;;;;;5051686;28;20643;-58
2021/01/13 05:25:41;;;;;;;9.83;5.80;;;3.40;99.90;;;;;;5051796;28;20210;-58
2021/01/13 05:28:10;;;;;;;11.00;5.90;;;3.50;99.90;;;;;;5051663;28;20197;-58
2021/01/13 05:30:38;;;;;;;9.83;5.83;;;3.60;99.90;;;;;;5052011;28;20225;-58
2021/01/13 05:33:07;;;;;;;8.93;5.57;;;3.70;99.90;;;;;;5052450;28;20233;-58
2021/01/13 05:35:37;;;;;;;7.40;6.00;;;3.80;99.90;;;;;;5052004;28;20590;-58
2021/01/13 05:38:13;;;;;;;9.43;5.83;;;3.80;99.90;;;;;;5051710;28;20279;-58
2021/01/13 05:40:48;;;;;;;12.97;6.60;;;3.80;99.90;;;;;;5051157;28;20228;-58
2021/01/13 05:43:15;;;;;;;8.13;6.07;;;3.80;99.90;;;;;;5051781;28;20213;-58
2021/01/13 05:45:43;;;;;;;8.33;5.63;;;3.80;99.90;;;;;;5051599;28;20255;-58
2021/01/13 05:48:17;;;;;;;8.63;4.93;;;3.90;99.90;;;;;;5051022;28;20246;-58
2021/01/13 05:50:45;;;;;;;13.30;6.37;;;3.90;99.90;;;;;;5052038;28;20225;-58
2021/01/13 05:53:12;;;;;;;9.47;5.33;;;3.90;99.90;;;;;;5051930;28;20205;-58
2021/01/13 05:55:47;;;;;;;7.67;5.33;;;4.00;99.90;;;;;;5051041;28;20205;-58
2021/01/13 05:58:14;;;;;;;10.70;6.00;;;4.00;99.90;;;;;;5050915;28;20221;-58
2021/01/13 06:00:41;;;;;;;13.17;8.10;;;4.00;99.90;;;;;;5051343;28;20705;-58
2021/01/13 06:03:11;;;;;;;13.17;6.00;;;4.00;99.90;;;;;;5051440;28;20209;-58
2021/01/13 06:05:48;;;;;;;7.97;5.27;;;4.00;99.90;;;;;;5051312;28;20348;-58
2021/01/13 06:08:15;;;;;;;8.77;5.43;;;4.00;99.90;;;;;;5050974;28;20760;-58
2021/01/13 06:10:42;;;;;;;9.27;5.87;;;4.00;99.90;;;;;;5051133;28;20763;-58
2021/01/13 06:13:15;;;;;;;9.70;5.23;;;4.00;99.90;;;;;;5050763;28;20212;-58
2021/01/13 06:15:44;;;;;;;13.47;7.27;;;4.00;99.90;;;;;;5050800;28;20673;-58
2021/01/13 06:18:14;;;;;;;13.07;5.37;;;3.90;99.90;;;;;;5050768;28;20434;-58
2021/01/13 06:20:41;;;;;;;13.60;6.73;;;3.80;99.90;;;;;;5051296;28;20361;-58
2021/01/13 06:23:10;;;;;;;8.00;5.50;;;3.70;99.90;;;;;;5050906;28;20292;-58
2021/01/13 06:25:36;;;;;;;8.73;4.93;;;3.60;99.90;;;;;;5050700;28;20202;-58
2021/01/13 06:28:27;;;;;;;9.37;5.13;;;3.70;99.90;;;;;;5050859;28;20201;-58
2021/01/13 06:31:08;;;;;;;8.87;5.03;;;3.60;99.90;;;;;;5051215;28;20705;-58
2021/01/13 06:33:56;;;;;;;13.87;6.20;;;3.70;99.90;;;;;;5051109;28;20210;-58
2021/01/13 06:36:37;;;;;;;12.53;5.50;;;3.70;99.90;;;;;;5051772;28;20669;-58
2021/01/13 06:39:05;;;;;;;16.10;6.83;;;3.80;99.90;;;;;;5051437;28;20293;-58
2021/01/13 06:41:44;;;;;;;11.00;6.00;;;3.80;99.90;;;;;;5051535;28;20229;-58
2021/01/13 06:44:10;;;;;;;9.77;5.97;;;3.80;99.90;;;;;;5050883;28;20259;-58
2021/01/13 06:46:37;;;;;;;13.63;6.83;;;3.80;99.90;;;;;;5050525;28;20670;-57
2021/01/13 06:49:21;;;;;;;12.60;5.60;;;3.80;99.90;;;;;;5051016;28;20221;-57
2021/01/13 06:51:49;;;;;;;11.57;5.17;;;3.70;99.90;;;;;;5052393;28;20229;-58
2021/01/13 06:54:16;;;;;;;10.30;5.80;;;3.70;99.90;;;;;;5054421;28;20221;-58
2021/01/13 06:56:47;;;;;;;29.07;15.70;;;3.60;99.90;;;;;;5054226;28;20209;-57
2021/01/13 06:59:14;;;;;;;13.67;6.27;;;3.60;99.90;;;;;;5054458;28;20736;-57
2021/01/13 07:01:50;;;;;;;11.90;6.50;;;3.50;99.90;;;;;;5054559;28;20827;-57
2021/01/13 07:04:16;;;;;;;17.37;5.40;;;3.40;99.90;;;;;;5054723;28;20232;-59
2021/01/13 07:07:00;;;;;;;9.60;4.70;;;3.40;99.90;;;;;;5054394;28;20213;-57
2021/01/13 07:09:37;;;;;;;8.57;4.33;;;3.40;99.90;;;;;;5054599;28;20205;-57
2021/01/13 07:12:08;;;;;;;21.77;10.80;;;3.40;99.90;;;;;;5055063;28;20692;-58
2021/01/13 07:14:39;;;;;;;16.57;6.93;;;3.50;99.90;;;;;;5054994;28;20206;-58
2021/01/13 07:17:08;;;;;;;9.17;4.47;;;3.40;99.90;;;;;;5054282;28;20279;-58
2021/01/13 07:19:35;;;;;;;21.00;9.83;;;3.40;99.90;;;;;;5054098;28;20208;-58
2021/01/13 07:22:03;;;;;;;8.97;4.43;;;3.40;99.90;;;;;;5054822;28;20202;-58
2021/01/13 07:24:29;;;;;;;8.47;4.10;;;3.30;99.90;;;;;;5054641;28;20224;-58
2021/01/13 07:26:57;;;;;;;9.37;4.13;;;3.40;99.90;;;;;;5054230;28;20288;-58
2021/01/13 07:29:25;;;;;;;18.43;4.63;;;3.30;99.90;;;;;;5054164;28;20736;-58
2021/01/13 07:31:55;;;;;;;9.37;3.93;;;3.30;99.90;;;;;;5053767;28;20321;-58
2021/01/13 07:34:29;;;;;;;15.20;4.27;;;3.30;99.90;;;;;;5053578;28;20227;-58
2021/01/13 07:37:00;;;;;;;7.63;4.27;;;3.30;99.90;;;;;;5054052;28;20250;-58
2021/01/13 07:40:00;;;;;;;11.63;5.47;;;3.30;99.90;;;;;;5053318;28;20210;-58
2021/01/13 07:42:35;;;;;;;14.07;7.07;;;3.30;99.90;;;;;;5053701;28;20205;-58
2021/01/13 07:45:05;;;;;;;10.80;5.10;;;3.30;99.90;;;;;;5053726;28;20216;-58
2021/01/13 07:48:03;;;;;;;9.23;4.00;;;3.40;99.90;;;;;;5054189;28;20645;-58
2021/01/13 07:50:32;;;;;;;9.53;3.93;;;3.40;99.90;;;;;;5053563;28;20232;-58
2021/01/13 07:53:06;;;;;;;13.90;7.40;;;3.40;99.90;;;;;;5053629;28;20292;-58
2021/01/13 07:55:36;;;;;;;10.87;6.23;;;3.50;99.90;;;;;;5053555;28;20504;-58
2021/01/13 07:58:18;;;;;;;11.17;5.80;;;3.50;99.90;;;;;;5053631;28;20731;-63
2021/01/13 08:00:58;;;;;;;10.73;6.13;;;3.60;99.90;;;;;;5053364;28;20230;-58
2021/01/13 08:04:14;;;;;;;9.60;4.53;;;3.70;99.90;;;;;;5052733;28;20209;-58
2021/01/13 08:06:48;;;;;;;9.00;3.57;;;3.90;99.90;;;;;;5053657;28;20221;-58
2021/01/13 08:09:19;;;;;;;10.73;6.63;;;4.00;99.90;;;;;;5053490;28;20581;-59
2021/01/13 08:12:16;;;;;;;8.27;4.13;;;4.20;99.90;;;;;;5053420;28;20230;-55
2021/01/13 08:15:11;;;;;;;10.17;4.50;;;4.30;99.90;;;;;;5053620;28;20206;-57
2021/01/13 08:17:40;;;;;;;15.43;7.97;;;4.30;99.90;;;;;;5053690;28;20233;-54
2021/01/13 08:20:42;;;;;;;9.70;4.27;;;4.30;99.90;;;;;;5052787;28;20657;-56
2021/01/13 08:23:11;;;;;;;9.47;4.10;;;4.20;99.90;;;;;;5053301;28;20201;-54
2021/01/13 08:25:42;;;;;;;7.53;3.40;;;4.20;99.90;;;;;;5053184;28;20332;-57
2021/01/13 08:28:12;;;;;;;9.37;3.80;;;4.20;99.90;;;;;;5053278;28;20220;-55
2021/01/13 08:30:41;;;;;;;5.83;3.90;;;4.20;99.90;;;;;;5053423;28;20249;-53
2021/01/13 08:33:18;;;;;;;6.27;3.40;;;4.30;99.90;;;;;;5053407;28;20202;-55
2021/01/13 08:35:48;;;;;;;16.43;7.80;;;4.40;99.90;;;;;;5053415;28;20209;-52
2021/01/13 08:38:15;;;;;;;10.70;6.60;;;4.50;99.90;;;;;;5054460;28;20237;-52
2021/01/13 08:40:43;;;;;;;5.47;3.93;;;4.70;99.90;;;;;;5053167;28;20755;-55
2021/01/13 08:43:12;;;;;;;11.23;4.90;;;4.60;99.90;;;;;;5052961;28;20296;-52
2021/01/13 08:45:41;;;;;;;7.77;3.93;;;4.60;99.90;;;;;;5052699;28;20209;-56
2021/01/13 08:48:09;;;;;;;6.37;3.80;;;4.60;99.90;;;;;;5053192;28;20206;-53
2021/01/13 08:50:36;;;;;;;11.83;3.90;;;4.60;99.90;;;;;;5052614;28;20241;-53
2021/01/13 08:53:04;;;;;;;8.63;4.13;;;4.60;99.90;;;;;;5052908;28;20202;-54
2021/01/13 08:55:33;;;;;;;11.50;3.90;;;4.60;99.90;;;;;;5052250;28;20213;-56
2021/01/13 08:58:09;;;;;;;9.80;4.23;;;4.70;99.90;;;;;;5052296;28;20302;-54
2021/01/13 09:00:37;;;;;;;11.33;4.00;;;4.80;99.90;;;;;;5052361;28;20336;-58
2021/01/13 09:03:06;;;;;;;25.43;14.97;;;4.90;99.90;;;;;;5052060;28;20289;-63
2021/01/13 09:05:35;;;;;;;11.03;4.93;;;5.00;99.90;;;;;;5051890;28;20212;-63
2021/01/13 09:08:04;;;;;;;7.87;3.27;;;5.30;99.90;;;;;;5051815;28;20226;-63
2021/01/13 09:10:52;;;;;;;8.50;3.40;;;5.60;99.90;;;;;;5051969;28;20221;-62
2021/01/13 09:13:35;;;;;;;7.30;3.00;;;5.90;99.90;;;;;;5051512;28;20275;-61
2021/01/13 09:16:35;;;;;;;7.63;3.70;;;6.00;99.90;;;;;;5051396;28;20214;-63
2021/01/13 09:19:05;;;;;;;14.67;6.70;;;6.00;99.90;;;;;;5046438;28;20233;-63
2021/01/13 09:21:32;;;;;;;10.50;3.97;;;6.00;99.90;;;;;;5051938;28;20237;-61
2021/01/13 09:24:00;;;;;;;9.27;3.93;;;6.10;99.90;;;;;;5051486;28;20202;-62
2021/01/13 09:26:35;;;;;;;7.80;3.20;;;6.20;99.90;;;;;;5051287;28;20201;-62
2021/01/13 09:29:03;;;;;;;9.33;3.20;;;6.30;99.90;;;;;;5051439;28;20201;-62
2021/01/13 09:31:30;;;;;;;5.00;2.80;;;6.40;99.90;;;;;;5051275;28;20222;-62
2021/01/13 09:33:57;;;;;;;6.50;3.10;;;6.50;99.90;;;;;;5051708;28;20208;-62
2021/01/13 09:36:24;;;;;;;6.33;2.83;;;6.50;99.90;;;;;;5051890;28;20201;-62
2021/01/13 09:39:10;;;;;;;4.33;3.07;;;6.30;99.90;;;;;;5051300;28;20225;-62
2021/01/13 09:41:40;;;;;;;5.90;2.77;;;6.30;99.90;;;;;;5051132;28;20302;-62
2021/01/13 09:44:14;;;;;;;6.27;3.00;;;6.50;99.90;;;;;;5051121;28;20296;-61
2021/01/13 09:46:41;;;;;;;7.43;2.97;;;6.70;99.90;;;;;;5051292;28;20209;-62
2021/01/13 09:49:09;;;;;;;8.47;4.10;;;7.00;99.90;;;;;;5051097;28;20209;-62
2021/01/13 09:51:36;;;;;;;5.33;2.70;;;7.10;99.90;;;;;;5050938;28;20625;-62
2021/01/13 09:54:04;;;;;;;7.50;3.10;;;7.20;99.90;;;;;;5050747;28;20211;-62
2021/01/13 09:56:32;;;;;;;4.23;2.97;;;7.40;99.90;;;;;;5051159;28;20303;-62
2021/01/13 09:59:02;;;;;;;10.13;2.90;;;7.50;99.90;;;;;;5051207;28;20229;-61
2021/01/13 10:01:29;;;;;;;12.13;4.60;;;7.60;99.90;;;;;;5051650;28;20225;-62
2021/01/13 10:03:57;;;;;;;7.40;3.40;;;7.70;99.90;;;;;;5051170;28;20293;-61
2021/01/13 10:06:27;;;;;;;8.43;3.60;;;7.80;99.90;;;;;;5051055;28;20222;-61
2021/01/13 10:08:54;;;;;;;7.03;2.60;;;7.90;99.90;;;;;;5051356;28;20215;-63
2021/01/13 10:11:24;;;;;;;5.60;3.20;;;7.90;99.90;;;;;;5051459;28;20690;-61
2021/01/13 10:13:57;;;;;;;9.17;4.00;;;7.90;99.90;;;;;;5051279;28;20780;-62
2021/01/13 10:16:25;;;;;;;6.33;3.03;;;7.90;99.90;;;;;;5051636;28;20235;-63
2021/01/13 10:18:52;;;;;;;3.73;2.37;;;7.90;99.90;;;;;;5051029;28;20225;-62
2021/01/13 10:21:19;;;;;;;8.83;3.33;;;8.00;99.90;;;;;;5050858;28;20612;-60
2021/01/13 10:23:47;;;;;;;5.83;2.63;;;8.00;99.90;;;;;;5051090;28;20208;-60
2021/01/13 10:26:14;;;;;;;6.93;2.80;;;8.00;99.90;;;;;;5053457;28;20205;-59
2021/01/13 10:28:40;;;;;;;6.40;2.73;;;8.00;99.90;;;;;;5055196;28;20209;-60
2021/01/13 10:31:09;;;;;;;8.80;2.70;;;8.10;99.90;;;;;;5055168;28;20225;-61
2021/01/13 10:33:54;;;;;;;5.40;2.30;;;8.00;99.90;;;;;;5055019;28;20213;-61
2021/01/13 10:36:39;;;;;;;4.60;2.30;;;8.10;99.90;;;;;;5055056;28;20201;-61
2021/01/13 10:39:18;;;;;;;4.23;2.10;;;8.10;99.90;;;;;;5054748;28;20300;-61
2021/01/13 10:41:46;;;;;;;10.70;2.50;;;8.20;99.90;;;;;;5054654;28;20236;-61
2021/01/13 10:44:14;;;;;;;6.67;2.90;;;8.20;99.90;;;;;;5055130;28;20213;-60
2021/01/13 10:46:56;;;;;;;8.50;2.90;;;8.30;99.90;;;;;;5054770;28;20201;-60
2021/01/13 10:49:31;;;;;;;8.33;3.70;;;8.30;99.90;;;;;;5054645;28;20232;-61
2021/01/13 10:52:00;;;;;;;6.47;2.60;;;8.50;99.90;;;;;;5054968;28;20212;-60
2021/01/13 10:54:28;;;;;;;7.47;2.67;;;8.40;99.90;;;;;;5054689;28;20216;-60
2021/01/13 10:57:01;;;;;;;6.97;2.63;;;8.50;99.90;;;;;;5054836;28;20217;-60
2021/01/13 10:59:31;;;;;;;6.07;2.30;;;8.50;99.90;;;;;;5054260;28;20756;-61
2021/01/13 11:02:02;;;;;;;4.83;2.30;;;8.30;99.90;;;;;;5055021;28;20209;-60
2021/01/13 11:04:39;;;;;;;8.07;2.50;;;8.30;99.90;;;;;;5055592;28;20214;-60
2021/01/13 11:07:08;;;;;;;8.30;2.47;;;8.30;99.90;;;;;;5055343;28;20228;-60
2021/01/13 11:09:36;;;;;;;8.70;3.50;;;8.30;99.90;;;;;;5054886;28;20216;-60
2021/01/13 11:12:03;;;;;;;7.60;2.50;;;8.30;99.90;;;;;;5055016;28;20587;-60
2021/01/13 11:14:34;;;;;;;6.87;2.30;;;8.30;99.90;;;;;;5054978;28;20673;-60
2021/01/13 11:17:03;;;;;;;6.93;2.70;;;8.20;99.90;;;;;;5055486;28;20568;-60
2021/01/13 11:19:30;;;;;;;7.77;2.47;;;8.30;99.90;;;;;;5055472;28;20236;-60
2021/01/13 11:21:58;;;;;;;8.17;3.60;;;8.30;99.90;;;;;;5056145;28;20202;-60
2021/01/13 11:24:44;;;;;;;6.97;2.20;;;8.30;99.90;;;;;;5054266;28;20213;-60
2021/01/13 11:27:13;;;;;;;6.10;2.30;;;8.30;99.90;;;;;;5054414;28;20213;-60
2021/01/13 11:29:42;;;;;;;5.93;2.53;;;8.30;99.90;;;;;;5053335;28;20225;-59
2021/01/13 11:32:13;;;;;;;7.23;2.17;;;8.00;99.90;;;;;;5054643;28;20210;-60
2021/01/13 11:34:40;;;;;;;5.50;2.00;;;7.90;99.90;;;;;;5054719;28;20201;-60
2021/01/13 11:37:42;;;;;;;5.20;2.17;;;7.90;99.90;;;;;;5053934;28;20205;-61
2021/01/13 11:40:24;;;;;;;5.90;2.27;;;7.90;99.90;;;;;;5051149;28;20739;-59
2021/01/13 11:43:17;;;;;;;6.27;2.20;;;7.90;99.90;;;;;;5053662;28;20695;-62
2021/01/13 11:45:57;;;;;;;3.83;1.90;;;7.90;99.90;;;;;;5053399;28;20217;-60
2021/01/13 11:48:28;;;;;;;7.00;2.30;;;7.70;99.90;;;;;;5053821;28;20432;-62
2021/01/13 11:51:01;;;;;;;6.27;2.27;;;7.80;99.90;;;;;;5064887;28;20285;-59
2021/01/13 11:53:34;;;;;;;9.57;3.23;;;7.80;99.90;;;;;;5066534;28;20293;-60
2021/01/13 11:56:05;;;;;;;9.57;2.37;;;7.80;99.90;;;;;;5072629;28;20244;-61
2021/01/13 11:58:32;;;;;;;7.20;2.00;;;7.90;99.90;;;;;;5066540;28;20229;-60
2021/01/13 12:01:02;;;;;;;7.60;2.03;;;7.90;99.90;;;;;;5069827;28;20225;-58
2021/01/13 12:03:30;;;;;;;6.37;1.60;;;7.80;99.70;;;;;;5051515;28;20297;-59
2021/01/13 12:06:07;;;;;;;9.57;2.10;;;7.70;99.90;;;;;;5046852;28;20206;-60
2021/01/13 12:08:33;;;;;;;5.77;2.07;;;7.80;99.90;;;;;;5046108;28;20221;-59
2021/01/13 12:11:07;;;;;;;7.07;2.70;;;7.60;99.90;;;;;;5047770;28;20721;-60
2021/01/13 12:13:43;;;;;;;5.83;2.80;;;7.50;99.90;;;;;;5052889;28;20225;-60
2021/01/13 12:16:16;;;;;;;5.27;1.63;;;7.50;99.90;;;;;;5048458;28;20237;-59
2021/01/13 12:18:47;;;;;;;6.33;1.90;;;7.50;99.90;;;;;;5043709;28;20313;-59
2021/01/13 12:21:28;;;;;;;5.00;1.80;;;7.50;99.90;;;;;;5034505;28;20230;-58
2021/01/13 12:23:55;;;;;;;5.03;2.00;;;7.60;99.90;;;;;;5031981;28;20295;-60
2021/01/13 12:26:23;;;;;;;6.87;1.80;;;7.70;99.90;;;;;;5032672;28;20217;-60
2021/01/13 12:28:51;;;;;;;9.27;5.20;;;7.70;99.90;;;;;;5032901;28;20655;-63
2021/01/13 12:31:19;;;;;;;5.37;2.00;;;7.70;99.90;;;;;;5032525;28;20710;-60
2021/01/13 12:33:50;;;;;;;4.27;1.70;;;7.70;99.90;;;;;;5033720;28;20203;-60
2021/01/13 12:36:18;;;;;;;4.67;1.50;;;7.60;99.90;;;;;;5032780;28;20232;-60
2021/01/13 12:38:46;;;;;;;5.57;1.47;;;7.60;99.90;;;;;;5032893;28;20238;-59
2021/01/13 12:41:19;;;;;;;8.50;2.20;;;7.40;99.90;;;;;;5034415;28;20322;-60
2021/01/13 12:43:47;;;;;;;5.23;1.80;;;7.40;99.90;;;;;;5032081;28;20670;-60
2021/01/13 12:46:13;;;;;;;8.90;1.67;;;7.60;99.90;;;;;;5032151;28;20213;-61
2021/01/13 12:48:39;;;;;;;4.57;2.00;;;7.70;99.80;;;;;;5032270;28;20198;-60
2021/01/13 12:51:06;;;;;;;4.10;1.63;;;7.80;99.90;;;;;;5031954;28;20226;-60
2021/01/13 12:53:32;;;;;;;3.37;1.20;;;7.90;99.80;;;;;;5031774;28;20224;-60
2021/01/13 12:55:58;;;;;;;5.90;1.60;;;7.90;99.30;;;;;;5032882;28;20597;-60
2021/01/13 12:58:25;;;;;;;5.13;2.20;;;7.90;99.60;;;;;;5032431;28;20223;-61
2021/01/13 13:00:52;;;;;;;3.53;1.60;;;8.00;99.60;;;;;;5033303;28;20729;-62
2021/01/13 13:03:18;;;;;;;4.73;1.60;;;8.10;99.30;;;;;;5032355;28;20240;-61
2021/01/13 13:05:45;;;;;;;4.07;1.67;;;8.10;99.00;;;;;;5032235;28;20206;-63
2021/01/13 13:08:11;;;;;;;4.23;1.53;;;8.00;99.00;;;;;;5031961;28;20206;-63
2021/01/13 13:10:37;;;;;;;3.90;1.40;;;8.10;98.80;;;;;;5032001;28;20222;-64
2021/01/13 13:13:03;;;;;;;3.37;1.37;;;8.10;98.50;;;;;;5031702;28;20206;-64
2021/01/13 13:15:29;;;;;;;4.80;1.30;;;8.10;98.30;;;;;;5031860;28;20206;-63
2021/01/13 13:17:56;;;;;;;6.17;1.83;;;8.00;98.20;;;;;;5031929;28;20225;-63
2021/01/13 13:20:23;;;;;;;6.90;2.63;;;7.90;98.20;;;;;;5031212;28;20242;-63